createdAt,value
2018-08-13T00:00:39.946Z,54.08
2018-08-13T00:01:39.962Z,53.78
2018-08-13T00:02:39.914Z,52.97
2018-08-13T00:03:39.938Z,53.47
2018-08-13T00:04:39.939Z,52.97
2018-08-13T00:05:39.889Z,53.88
2018-08-13T00:06:39.893Z,53.88
2018-08-13T00:07:39.863Z,53.47
2018-08-13T00:08:39.856Z,53.78
2018-08-13T00:09:39.838Z,54.58
2018-08-13T00:10:39.854Z,52.57
2018-08-13T00:11:39.819Z,52.06
2018-08-13T00:12:39.813Z,53.78
2018-08-13T00:13:39.817Z,53.78
2018-08-13T00:14:39.783Z,54.08
2018-08-13T00:15:39.864Z,53.47
2018-08-13T00:16:39.796Z,52.87
2018-08-13T00:17:39.814Z,54.18
2018-08-13T00:18:39.754Z,54.38
2018-08-13T00:19:39.725Z,54.68
2018-08-13T00:20:39.739Z,53.78
2018-08-13T00:21:39.704Z,54.88
2018-08-13T00:22:39.691Z,54.38
2018-08-13T00:23:39.679Z,53.07
2018-08-13T00:24:39.668Z,53.67
2018-08-13T00:25:39.691Z,52.37
2018-08-13T00:26:39.655Z,53.67
2018-08-13T00:27:39.633Z,52.26
2018-08-13T00:28:39.639Z,54.08
2018-08-13T00:29:40.153Z,53.38
2018-08-13T00:30:39.632Z,54.58
2018-08-13T00:31:39.686Z,54.38
2018-08-13T00:32:39.579Z,54.08
2018-08-13T00:33:39.604Z,53.67
2018-08-13T00:34:39.571Z,53.78
2018-08-13T00:35:39.549Z,54.08
2018-08-13T00:36:39.532Z,53.27
2018-08-13T00:37:39.564Z,53.58
2018-08-13T00:38:39.510Z,52.26
2018-08-13T00:39:39.498Z,52.47
2018-08-13T00:40:39.490Z,53.07
2018-08-13T00:41:39.476Z,52.47
2018-08-13T00:42:39.499Z,51.97
2018-08-13T00:43:39.451Z,51.16
2018-08-13T00:44:39.477Z,51.66
2018-08-13T00:45:39.433Z,51.66
2018-08-13T00:46:39.425Z,50.76
2018-08-13T00:47:39.411Z,51.56
2018-08-13T00:48:39.434Z,51.46
2018-08-13T00:49:39.386Z,51.43
2018-08-13T00:50:39.384Z,51.23
2018-08-13T00:51:39.400Z,50.43
2018-08-13T00:52:39.365Z,50.93
2018-08-13T00:53:40.170Z,50.53
2018-08-13T00:54:39.331Z,50.93
2018-08-13T00:55:40.125Z,50.53
2018-08-13T00:56:39.336Z,51.03
2018-08-13T00:57:39.302Z,49.90
2018-08-13T00:58:39.298Z,49.10
2018-08-13T00:59:39.276Z,50.13
2018-08-13T01:00:39.263Z,48.90
2018-08-13T01:01:39.338Z,49.19
2018-08-13T01:02:39.240Z,49.70
2018-08-13T01:03:39.226Z,49.30
2018-08-13T01:04:39.215Z,47.59
2018-08-13T01:05:39.212Z,48.09
2018-08-13T01:06:39.273Z,49.30
2018-08-13T01:07:39.182Z,48.90
2018-08-13T01:08:39.173Z,48.19
2018-08-13T01:09:39.161Z,49.50
2018-08-13T01:10:39.158Z,49.90
2018-08-13T01:11:39.253Z,48.90
2018-08-13T01:12:39.126Z,49.30
2018-08-13T01:13:39.129Z,49.10
2018-08-13T01:14:39.178Z,50.31
2018-08-13T01:15:39.102Z,51.11
2018-08-13T01:16:39.137Z,50.60
2018-08-13T01:17:39.109Z,50.10
2018-08-13T01:18:39.068Z,50.10
2018-08-13T01:19:39.049Z,50.81
2018-08-13T01:20:39.044Z,50.71
2018-08-13T01:21:39.028Z,51.31
2018-08-13T01:22:39.054Z,51.61
2018-08-13T01:23:39.000Z,51.03
2018-08-13T01:24:38.989Z,50.83
2018-08-13T01:25:38.982Z,50.73
2018-08-13T01:26:38.974Z,50.93
2018-08-13T01:27:38.986Z,51.54
2018-08-13T01:28:38.948Z,50.96
2018-08-13T01:29:38.932Z,51.06
2018-08-13T01:30:39.000Z,51.26
2018-08-13T01:31:38.946Z,51.86
2018-08-13T01:32:38.903Z,52.67
2018-08-13T01:33:38.891Z,52.26
2018-08-13T01:34:38.921Z,52.67
2018-08-13T01:35:38.900Z,52.47
2018-08-13T01:36:38.861Z,52.19
2018-08-13T01:37:38.895Z,52.67
2018-08-13T01:38:38.869Z,52.49
2018-08-13T01:39:38.827Z,52.59
2018-08-13T01:40:38.841Z,52.80
2018-08-13T01:41:38.805Z,52.80
2018-08-13T01:42:38.788Z,53.00
2018-08-13T01:43:38.782Z,53.20
2018-08-13T01:44:38.796Z,53.80
2018-08-13T01:45:38.759Z,53.20
2018-08-13T01:46:38.742Z,53.09
2018-08-13T01:47:38.730Z,53.30
2018-08-13T01:48:38.726Z,53.90
2018-08-13T01:49:38.742Z,53.72
2018-08-13T01:50:38.707Z,53.83
2018-08-13T01:51:38.692Z,54.53
2018-08-13T01:52:38.681Z,54.53
2018-08-13T01:53:38.700Z,54.33
2018-08-13T01:54:38.745Z,54.73
2018-08-13T01:55:38.641Z,55.44
2018-08-13T01:56:38.642Z,54.83
2018-08-13T01:57:38.671Z,54.73
2018-08-13T01:58:38.654Z,54.94
2018-08-13T01:59:38.599Z,55.04
2018-08-13T02:00:38.589Z,55.04
2018-08-13T02:01:38.581Z,54.83
2018-08-13T02:02:38.625Z,54.56
2018-08-13T02:03:38.552Z,54.43
2018-08-13T02:04:38.557Z,54.25
2018-08-13T02:05:38.537Z,54.23
2018-08-13T02:06:38.517Z,55.16
2018-08-13T02:07:38.568Z,55.57
2018-08-13T02:08:38.497Z,55.06
2018-08-13T02:09:38.489Z,55.77
2018-08-13T02:10:38.476Z,56.07
2018-08-13T02:11:38.464Z,55.57
2018-08-13T02:12:38.483Z,55.97
2018-08-13T02:13:38.508Z,55.77
2018-08-13T02:14:38.466Z,56.48
2018-08-13T02:15:38.461Z,55.97
2018-08-13T02:16:38.439Z,55.87
2018-08-13T02:17:38.398Z,55.57
2018-08-13T02:18:38.414Z,55.57
2018-08-13T02:19:38.388Z,55.97
2018-08-13T02:20:38.366Z,56.17
2018-08-13T02:21:38.406Z,56.27
2018-08-13T02:22:38.342Z,55.87
2018-08-13T02:23:38.332Z,56.37
2018-08-13T02:24:38.323Z,55.87
2018-08-13T02:25:38.311Z,56.88
2018-08-13T02:26:38.341Z,56.48
2018-08-13T02:27:38.287Z,56.48
2018-08-13T02:28:38.275Z,56.48
2018-08-13T02:29:38.261Z,57.18
2018-08-13T02:30:38.262Z,57.86
2018-08-13T02:31:38.378Z,56.85
2018-08-13T02:32:38.228Z,55.44
2018-08-13T02:33:38.217Z,55.54
2018-08-13T02:34:38.217Z,55.24
2018-08-13T02:35:38.197Z,54.63
2018-08-13T02:36:38.243Z,55.14
2018-08-13T02:37:38.259Z,54.63
2018-08-13T02:38:38.159Z,54.63
2018-08-13T02:39:38.153Z,54.13
2018-08-13T02:40:38.150Z,54.53
2018-08-13T02:41:38.187Z,55.04
2018-08-13T02:42:38.123Z,53.83
2018-08-13T02:43:38.105Z,53.92
2018-08-13T02:44:38.097Z,53.60
2018-08-13T02:45:38.093Z,55.01
2018-08-13T02:46:38.099Z,55.54
2018-08-13T02:47:38.060Z,54.71
2018-08-13T02:48:38.065Z,55.41
2018-08-13T02:49:38.037Z,55.82
2018-08-13T02:50:38.052Z,55.21
2018-08-13T02:51:38.016Z,55.82
2018-08-13T02:52:38.001Z,56.52
2018-08-13T02:53:38.080Z,57.73
2018-08-13T02:54:37.979Z,57.93
2018-08-13T02:55:38.003Z,58.84
2018-08-13T02:56:37.962Z,58.74
2018-08-13T02:57:37.956Z,58.61
2018-08-13T02:58:37.960Z,58.34
2018-08-13T02:59:37.939Z,57.12
2018-08-13T03:00:37.963Z,57.43
2018-08-13T03:01:37.946Z,57.00
2018-08-13T03:02:37.892Z,56.72
2018-08-13T03:03:37.884Z,57.32
2018-08-13T03:04:38.026Z,57.43
2018-08-13T03:05:37.872Z,57.73
2018-08-13T03:06:37.975Z,58.23
2018-08-13T03:07:37.838Z,56.92
2018-08-13T03:08:37.826Z,57.53
2018-08-13T03:09:37.853Z,57.83
2018-08-13T03:10:37.802Z,58.11
2018-08-13T03:11:37.795Z,58.03
2018-08-13T03:12:37.778Z,57.23
2018-08-13T03:13:37.766Z,57.12
2018-08-13T03:14:37.791Z,56.80
2018-08-13T03:15:37.747Z,56.52
2018-08-13T03:16:37.765Z,56.32
2018-08-13T03:17:37.720Z,56.12
2018-08-13T03:18:37.748Z,56.32
2018-08-13T03:19:37.702Z,56.42
2018-08-13T03:20:37.700Z,56.52
2018-08-13T03:21:37.685Z,56.32
2018-08-13T03:22:37.701Z,56.32
2018-08-13T03:23:37.659Z,56.09
2018-08-13T03:24:37.640Z,56.09
2018-08-13T03:25:37.629Z,55.89
2018-08-13T03:26:37.619Z,55.69
2018-08-13T03:27:37.647Z,55.69
2018-08-13T03:28:37.594Z,56.40
2018-08-13T03:29:37.592Z,55.79
2018-08-13T03:30:37.664Z,54.28
2018-08-13T03:31:37.565Z,54.28
2018-08-13T03:32:37.596Z,53.58
2018-08-13T03:33:37.731Z,53.07
2018-08-13T03:34:37.533Z,52.87
2018-08-13T03:35:37.520Z,52.84
2018-08-13T03:36:37.544Z,53.17
2018-08-13T03:37:37.528Z,53.14
2018-08-13T03:38:37.493Z,53.45
2018-08-13T03:39:37.511Z,52.92
2018-08-13T03:40:37.464Z,52.92
2018-08-13T03:41:37.454Z,52.72
2018-08-13T03:42:37.444Z,52.42
2018-08-13T03:43:37.433Z,53.02
2018-08-13T03:44:37.449Z,52.59
2018-08-13T03:45:37.407Z,52.49
2018-08-13T03:46:37.476Z,52.39
2018-08-13T03:47:37.384Z,51.68
2018-08-13T03:48:37.419Z,51.89
2018-08-13T03:49:37.366Z,52.69
2018-08-13T03:50:37.388Z,52.59
2018-08-13T03:51:37.376Z,51.68
2018-08-13T03:52:37.332Z,51.56
2018-08-13T03:53:37.355Z,51.16
2018-08-13T03:54:37.303Z,51.26
2018-08-13T03:55:37.335Z,51.46
2018-08-13T03:56:37.288Z,51.06
2018-08-13T03:57:37.269Z,51.16
2018-08-13T03:58:37.266Z,51.56
2018-08-13T03:59:37.251Z,51.44
2018-08-13T04:00:37.270Z,50.86
2018-08-13T04:01:37.261Z,50.93
2018-08-13T04:02:37.226Z,50.84
2018-08-13T04:03:37.203Z,50.63
2018-08-13T04:04:37.201Z,50.43
2018-08-13T04:05:37.262Z,50.43
2018-08-13T04:06:37.190Z,50.13
2018-08-13T04:07:37.189Z,50.63
2018-08-13T04:08:37.146Z,50.31
2018-08-13T04:09:37.137Z,50.01
2018-08-13T04:10:37.165Z,49.73
2018-08-13T04:11:37.117Z,49.71
2018-08-13T04:12:37.101Z,49.80
2018-08-13T04:13:37.138Z,50.31
2018-08-13T04:14:37.083Z,50.81
2018-08-13T04:15:37.104Z,51.19
2018-08-13T04:16:37.061Z,51.72
2018-08-13T04:17:37.051Z,52.19
2018-08-13T04:18:37.037Z,53.30
2018-08-13T04:19:37.044Z,52.89
2018-08-13T04:20:37.054Z,53.00
2018-08-13T04:21:37.003Z,53.70
2018-08-13T04:22:37.005Z,55.60
2018-08-13T04:23:37.066Z,55.83
2018-08-13T04:24:36.973Z,56.43
2018-08-13T04:25:37.006Z,56.43
2018-08-13T04:26:36.956Z,56.84
2018-08-13T04:27:36.939Z,57.84
2018-08-13T04:28:36.938Z,58.47
2018-08-13T04:29:36.942Z,59.88
2018-08-13T04:30:36.952Z,60.00
2018-08-13T04:31:36.890Z,61.08
2018-08-13T04:32:36.907Z,60.41
2018-08-13T04:33:36.897Z,61.51
2018-08-13T04:34:36.862Z,61.74
2018-08-13T04:35:36.850Z,63.25
2018-08-13T04:36:36.836Z,63.25
2018-08-13T04:37:36.827Z,62.65
2018-08-13T04:38:36.856Z,64.26
2018-08-13T04:39:36.804Z,65.19
2018-08-13T04:40:36.792Z,65.50
2018-08-13T04:41:36.780Z,65.50
2018-08-13T04:42:36.769Z,67.31
2018-08-13T04:43:36.788Z,67.74
2018-08-13T04:44:36.747Z,67.24
2018-08-13T04:45:36.836Z,67.34
2018-08-13T04:46:36.727Z,68.35
2018-08-13T04:47:36.718Z,69.59
2018-08-13T04:48:36.702Z,68.18
2018-08-13T04:49:36.735Z,69.38
2018-08-13T04:50:36.682Z,69.49
2018-08-13T04:51:36.672Z,70.29
2018-08-13T04:52:36.658Z,70.09
2018-08-13T04:53:36.646Z,70.19
2018-08-13T04:54:36.672Z,71.10
2018-08-13T04:55:36.628Z,71.73
2018-08-13T04:56:36.615Z,71.53
2018-08-13T04:57:36.608Z,71.73
2018-08-13T04:58:36.593Z,71.50
2018-08-13T04:59:36.615Z,71.20
2018-08-13T05:00:36.599Z,70.83
2018-08-13T05:01:36.558Z,72.24
2018-08-13T05:02:36.555Z,71.73
2018-08-13T05:03:36.533Z,73.05
2018-08-13T05:04:36.529Z,73.75
2018-08-13T05:05:36.555Z,71.73
2018-08-13T05:06:36.503Z,73.45
2018-08-13T05:07:36.493Z,73.75
2018-08-13T05:08:36.522Z,73.18
2018-08-13T05:09:36.537Z,73.58
2018-08-13T05:10:36.462Z,72.98
2018-08-13T05:11:36.543Z,73.58
2018-08-13T05:12:36.443Z,74.08
2018-08-13T05:13:36.420Z,74.19
2018-08-13T05:14:36.447Z,74.99
2018-08-13T05:15:36.403Z,74.79
2018-08-13T05:16:36.391Z,74.19
2018-08-13T05:17:36.384Z,74.19
2018-08-13T05:18:36.368Z,74.83
2018-08-13T05:19:36.390Z,76.54
2018-08-13T05:20:36.345Z,76.84
2018-08-13T05:21:36.333Z,77.15
2018-08-13T05:22:36.326Z,77.55
2018-08-13T05:23:36.312Z,77.35
2018-08-13T05:24:36.333Z,77.75
2018-08-13T05:25:36.368Z,77.35
2018-08-13T05:26:36.279Z,77.55
2018-08-13T05:27:36.302Z,77.45
2018-08-13T05:28:36.253Z,77.45
2018-08-13T05:29:36.286Z,77.95
2018-08-13T05:30:36.229Z,79.27
2018-08-13T05:31:36.219Z,78.46
2018-08-13T05:32:36.207Z,78.16
2018-08-13T05:33:36.205Z,78.96
2018-08-13T05:34:36.216Z,78.46
2018-08-13T05:35:36.209Z,77.86
2018-08-13T05:36:36.166Z,77.86
2018-08-13T05:37:36.155Z,78.09
2018-08-13T05:38:36.177Z,79.27
2018-08-13T05:39:36.163Z,78.80
2018-08-13T05:40:36.125Z,79.30
2018-08-13T05:41:36.120Z,79.21
2018-08-13T05:42:36.107Z,79.06
2018-08-13T05:43:36.086Z,78.30
2018-08-13T05:44:36.110Z,78.76
2018-08-13T05:45:36.070Z,78.36
2018-08-13T05:46:36.055Z,77.89
2018-08-13T05:47:36.039Z,78.16
2018-08-13T05:48:36.062Z,78.59
2018-08-13T05:49:36.704Z,78.46
2018-08-13T05:50:36.043Z,77.35
2018-08-13T05:51:36.005Z,78.26
2018-08-13T05:52:36.024Z,77.75
2018-08-13T05:53:35.978Z,77.95
2018-08-13T05:54:35.967Z,78.26
2018-08-13T05:55:35.989Z,78.96
2018-08-13T05:56:35.944Z,78.76
2018-08-13T05:57:35.931Z,78.76
2018-08-13T05:58:35.926Z,78.96
2018-08-13T05:59:35.942Z,79.67
2018-08-13T06:00:35.905Z,80.68
2018-08-13T06:01:35.885Z,80.27
2018-08-13T06:02:35.879Z,79.57
2018-08-13T06:03:35.905Z,79.87
2018-08-13T06:04:35.866Z,79.36
2018-08-13T06:05:35.896Z,79.67
2018-08-13T06:06:35.830Z,79.87
2018-08-13T06:07:35.820Z,80.58
2018-08-13T06:08:35.813Z,80.47
2018-08-13T06:09:35.805Z,81.28
2018-08-13T06:10:35.823Z,80.88
2018-08-13T06:11:36.822Z,80.78
2018-08-13T06:12:35.767Z,81.38
2018-08-13T06:13:35.767Z,82.09
2018-08-13T06:14:35.747Z,81.18
2018-08-13T06:15:35.775Z,80.88
2018-08-13T06:16:35.746Z,81.28
2018-08-13T06:17:35.715Z,81.82
2018-08-13T06:18:35.701Z,81.68
2018-08-13T06:19:35.687Z,81.89
2018-08-13T06:20:35.704Z,82.23
2018-08-13T06:21:35.708Z,82.23
2018-08-13T06:22:35.653Z,82.13
2018-08-13T06:23:35.645Z,82.23
2018-08-13T06:24:35.675Z,82.03
2018-08-13T06:25:35.621Z,83.14
2018-08-13T06:26:35.610Z,82.03
2018-08-13T06:27:35.629Z,81.73
2018-08-13T06:28:35.588Z,81.42
2018-08-13T06:29:35.611Z,82.09
2018-08-13T06:30:35.599Z,82.79
2018-08-13T06:31:35.559Z,83.50
2018-08-13T06:32:35.601Z,82.29
2018-08-13T06:33:35.530Z,82.39
2018-08-13T06:34:35.525Z,83.00
2018-08-13T06:35:35.512Z,83.40
2018-08-13T06:36:35.499Z,83.64
2018-08-13T06:37:35.544Z,83.40
2018-08-13T06:38:35.477Z,83.95
2018-08-13T06:39:35.467Z,83.50
2018-08-13T06:40:35.450Z,83.60
2018-08-13T06:41:35.444Z,83.14
2018-08-13T06:42:35.468Z,83.74
2018-08-13T06:43:35.454Z,84.85
2018-08-13T06:44:35.409Z,84.31
2018-08-13T06:45:36.213Z,83.91
2018-08-13T06:46:35.388Z,83.91
2018-08-13T06:47:35.383Z,84.41
2018-08-13T06:48:35.409Z,84.61
2018-08-13T06:49:35.352Z,84.81
2018-08-13T06:50:35.339Z,84.51
2018-08-13T06:51:35.343Z,84.61
2018-08-13T06:52:36.256Z,83.70
2018-08-13T06:53:35.340Z,83.70
2018-08-13T06:54:35.293Z,83.80
2018-08-13T06:55:35.338Z,83.91
2018-08-13T06:56:35.278Z,83.66
2018-08-13T06:57:35.314Z,83.91
2018-08-13T06:58:35.255Z,83.76
2018-08-13T06:59:35.249Z,83.56
2018-08-13T07:00:35.254Z,83.97
2018-08-13T07:01:35.222Z,83.87
2018-08-13T07:02:35.217Z,83.16
2018-08-13T07:03:35.261Z,83.56
2018-08-13T07:04:35.288Z,83.16
2018-08-13T07:05:35.194Z,82.92
2018-08-13T07:06:35.162Z,82.62
2018-08-13T07:07:35.161Z,83.42
2018-08-13T07:08:35.179Z,82.62
2018-08-13T07:09:35.137Z,82.07
2018-08-13T07:10:35.733Z,82.31
2018-08-13T07:11:35.213Z,81.77
2018-08-13T07:12:35.095Z,81.67
2018-08-13T07:13:35.114Z,82.07
2018-08-13T07:14:35.076Z,81.71
2018-08-13T07:15:35.771Z,80.16
2018-08-13T07:16:35.056Z,80.77
2018-08-13T07:17:35.075Z,81.07
2018-08-13T07:18:35.025Z,81.17
2018-08-13T07:19:35.026Z,81.57
2018-08-13T07:20:35.017Z,81.77
2018-08-13T07:21:35.041Z,81.47
2018-08-13T07:22:35.010Z,81.17
2018-08-13T07:23:34.977Z,81.17
2018-08-13T07:24:42.018Z,81.17
2018-08-13T07:25:34.989Z,81.53
2018-08-13T07:26:34.946Z,80.93
2018-08-13T07:27:34.937Z,81.43
2018-08-13T07:28:34.935Z,80.43
2018-08-13T07:29:34.907Z,79.62
2018-08-13T07:30:34.919Z,80.22
2018-08-13T07:31:34.902Z,80.83
2018-08-13T07:32:34.872Z,81.23
2018-08-13T07:33:34.891Z,80.93
2018-08-13T07:34:34.885Z,81.53
2018-08-13T07:35:34.835Z,81.49
2018-08-13T07:36:34.824Z,81.23
2018-08-13T07:37:34.816Z,80.08
2018-08-13T07:38:34.806Z,79.58
2018-08-13T07:39:34.820Z,80.79
2018-08-13T07:40:34.782Z,80.19
2018-08-13T07:41:34.773Z,80.08
2018-08-13T07:42:34.767Z,80.89
2018-08-13T07:43:34.799Z,79.38
2018-08-13T07:44:34.829Z,79.58
2018-08-13T07:45:34.749Z,80.08
2018-08-13T07:46:34.788Z,79.28
2018-08-13T07:47:34.718Z,79.88
2018-08-13T07:48:34.744Z,79.58
2018-08-13T07:49:34.682Z,79.18
2018-08-13T07:50:34.670Z,79.58
2018-08-13T07:51:34.663Z,79.18
2018-08-13T07:52:34.650Z,79.18
2018-08-13T07:53:34.674Z,79.58
2018-08-13T07:54:35.286Z,79.18
2018-08-13T07:55:34.608Z,79.24
2018-08-13T07:56:34.611Z,78.78
2018-08-13T07:57:34.621Z,78.47
2018-08-13T07:58:34.587Z,79.08
2018-08-13T07:59:34.582Z,78.47
2018-08-13T08:00:34.555Z,79.08
2018-08-13T08:01:34.543Z,79.08
2018-08-13T08:02:34.560Z,78.98
2018-08-13T08:03:34.538Z,78.81
2018-08-13T08:04:34.515Z,78.67
2018-08-13T08:05:34.530Z,79.22
2018-08-13T08:06:34.486Z,78.38
2018-08-13T08:07:34.579Z,78.78
2018-08-13T08:08:34.468Z,78.78
2018-08-13T08:09:34.458Z,79.08
2018-08-13T08:10:34.439Z,79.38
2018-08-13T08:11:34.434Z,79.28
2018-08-13T08:12:34.452Z,78.78
2018-08-13T08:13:34.414Z,78.98
2018-08-13T08:14:34.416Z,78.98
2018-08-13T08:15:34.421Z,79.08
2018-08-13T08:16:34.379Z,78.98
2018-08-13T08:17:34.417Z,78.78
2018-08-13T08:18:34.361Z,78.67
2018-08-13T08:19:34.346Z,79.18
2018-08-13T08:20:34.343Z,79.58
2018-08-13T08:21:34.320Z,79.24
2018-08-13T08:22:34.342Z,79.04
2018-08-13T08:23:34.295Z,78.84
2018-08-13T08:24:35.252Z,78.17
2018-08-13T08:25:34.285Z,79.14
2018-08-13T08:26:34.568Z,79.24
2018-08-13T08:27:34.312Z,79.04
2018-08-13T08:28:34.241Z,78.84
2018-08-13T08:29:34.226Z,77.87
2018-08-13T08:30:34.246Z,77.73
2018-08-13T08:31:34.216Z,78.74
2018-08-13T08:32:34.199Z,78.27
2018-08-13T08:33:34.185Z,78.58
2018-08-13T08:34:34.191Z,78.98
2018-08-13T08:35:34.188Z,78.07
2018-08-13T08:36:34.152Z,77.87
2018-08-13T08:37:34.150Z,77.77
2018-08-13T08:38:34.137Z,77.97
2018-08-13T08:39:34.153Z,79.18
2018-08-13T08:40:34.141Z,79.18
2018-08-13T08:41:34.096Z,78.98
2018-08-13T08:42:34.123Z,78.98
2018-08-13T08:43:34.076Z,79.68
2018-08-13T08:44:34.065Z,79.38
2018-08-13T08:45:34.063Z,79.62
2018-08-13T08:46:34.043Z,79.42
2018-08-13T08:47:34.061Z,80.02
2018-08-13T08:48:34.026Z,80.63
2018-08-13T08:49:34.060Z,79.62
2018-08-13T08:50:34.005Z,80.83
2018-08-13T08:51:33.978Z,80.52
2018-08-13T08:52:33.977Z,80.93
2018-08-13T08:53:33.985Z,81.13
2018-08-13T08:54:34.001Z,80.89
2018-08-13T08:55:33.944Z,80.93
2018-08-13T08:56:33.961Z,80.08
2018-08-13T08:57:33.924Z,80.12
2018-08-13T08:58:33.904Z,80.08
2018-08-13T08:59:33.916Z,79.79
2018-08-13T09:00:33.882Z,79.28
2018-08-13T09:01:33.905Z,79.14
2018-08-13T09:02:33.873Z,79.14
2018-08-13T09:03:33.847Z,78.74
2018-08-13T09:04:33.868Z,78.74
2018-08-13T09:05:33.828Z,78.84
2018-08-13T09:06:33.850Z,79.04
2018-08-13T09:07:33.839Z,78.84
2018-08-13T09:08:33.836Z,79.04
2018-08-13T09:09:33.791Z,78.64
2018-08-13T09:10:33.772Z,79.44
2018-08-13T09:11:33.787Z,78.80
2018-08-13T09:12:33.752Z,78.70
2018-08-13T09:13:33.766Z,79.50
2018-08-13T09:14:33.731Z,79.00
2018-08-13T09:15:33.717Z,78.60
2018-08-13T09:16:33.712Z,78.40
2018-08-13T09:17:33.690Z,78.60
2018-08-13T09:18:33.714Z,77.70
2018-08-13T09:19:33.665Z,78.36
2018-08-13T09:20:33.719Z,78.16
2018-08-13T09:21:33.651Z,77.16
2018-08-13T09:22:33.657Z,76.89
2018-08-13T09:23:34.269Z,76.79
2018-08-13T09:24:33.614Z,77.16
2018-08-13T09:25:33.616Z,77.50
2018-08-13T09:26:33.591Z,77.36
2018-08-13T09:27:33.613Z,75.85
2018-08-13T09:28:33.573Z,76.05
2018-08-13T09:29:33.563Z,76.35
2018-08-13T09:30:33.548Z,76.45
2018-08-13T09:31:33.539Z,75.85
2018-08-13T09:32:33.565Z,75.75
2018-08-13T09:33:33.516Z,75.45
2018-08-13T09:34:33.514Z,75.95
2018-08-13T09:35:33.492Z,76.32
2018-08-13T09:36:33.498Z,76.32
2018-08-13T09:37:33.497Z,76.42
2018-08-13T09:38:33.467Z,76.82
2018-08-13T09:39:33.542Z,75.82
2018-08-13T09:40:33.438Z,75.92
2018-08-13T09:41:33.428Z,74.37
2018-08-13T09:42:33.493Z,74.68
2018-08-13T09:43:33.410Z,74.88
2018-08-13T09:44:33.400Z,74.98
2018-08-13T09:45:33.385Z,74.34
2018-08-13T09:46:33.400Z,74.74
2018-08-13T09:47:33.391Z,74.64
2018-08-13T09:48:33.350Z,74.44
2018-08-13T09:49:33.388Z,74.34
2018-08-13T09:50:33.340Z,73.60
2018-08-13T09:51:33.323Z,73.40
2018-08-13T09:52:33.306Z,73.60
2018-08-13T09:53:33.351Z,73.50
2018-08-13T09:54:33.282Z,73.50
2018-08-13T09:55:33.273Z,72.90
2018-08-13T09:56:33.296Z,72.97
2018-08-13T09:57:33.262Z,73.30
2018-08-13T09:58:33.235Z,73.50
2018-08-13T09:59:33.298Z,72.80
2018-08-13T10:00:33.315Z,73.10
2018-08-13T10:01:33.231Z,73.07
2018-08-13T10:02:33.200Z,72.66
2018-08-13T10:03:33.199Z,73.90
2018-08-13T10:04:33.187Z,73.50
2018-08-13T10:05:33.172Z,73.20
2018-08-13T10:06:33.192Z,74.20
2018-08-13T10:07:33.183Z,73.67
2018-08-13T10:08:33.125Z,73.40
2018-08-13T10:09:33.245Z,73.07
2018-08-13T10:10:33.142Z,73.47
2018-08-13T10:11:33.125Z,73.16
2018-08-13T10:12:33.092Z,73.33
2018-08-13T10:13:33.078Z,72.63
2018-08-13T10:14:33.084Z,73.13
2018-08-13T10:15:33.044Z,71.93
2018-08-13T10:16:33.129Z,71.93
2018-08-13T10:17:33.080Z,73.03
2018-08-13T10:18:33.024Z,72.33
2018-08-13T10:19:33.006Z,72.89
2018-08-13T10:20:32.995Z,72.00
2018-08-13T10:21:33.019Z,71.30
2018-08-13T10:22:32.964Z,71.39
2018-08-13T10:23:33.020Z,71.26
2018-08-13T10:24:32.944Z,70.86
2018-08-13T10:25:32.955Z,71.26
2018-08-13T10:26:32.969Z,70.86
2018-08-13T10:27:32.939Z,71.06
2018-08-13T10:28:32.899Z,71.03
2018-08-13T10:29:32.931Z,71.03
2018-08-13T10:30:32.915Z,70.79
2018-08-13T10:31:32.878Z,70.29
2018-08-13T10:32:32.888Z,69.69
2018-08-13T10:33:32.862Z,69.59
2018-08-13T10:34:32.835Z,68.96
2018-08-13T10:35:32.853Z,69.16
2018-08-13T10:36:32.840Z,69.26
2018-08-13T10:37:32.920Z,68.46
2018-08-13T10:38:32.791Z,68.56
2018-08-13T10:39:32.776Z,67.36
2018-08-13T10:40:32.768Z,67.86
2018-08-13T10:41:32.754Z,67.26
2018-08-13T10:42:32.779Z,67.96
2018-08-13T10:43:32.824Z,69.36
2018-08-13T10:44:32.729Z,67.56
2018-08-13T10:45:32.713Z,67.93
2018-08-13T10:46:32.700Z,67.33
2018-08-13T10:47:32.722Z,67.93
2018-08-13T10:48:32.705Z,67.56
2018-08-13T10:49:32.679Z,67.03
2018-08-13T10:50:32.652Z,67.43
2018-08-13T10:51:32.643Z,67.03
2018-08-13T10:52:32.637Z,67.13
2018-08-13T10:53:32.675Z,67.03
2018-08-13T10:54:32.627Z,67.23
2018-08-13T10:55:32.607Z,67.60
2018-08-13T10:56:32.590Z,67.00
2018-08-13T10:57:32.580Z,66.50
2018-08-13T10:58:32.642Z,67.00
2018-08-13T10:59:32.563Z,66.60
2018-08-13T11:00:32.547Z,66.80
2018-08-13T11:01:32.541Z,66.60
2018-08-13T11:02:32.531Z,65.70
2018-08-13T11:03:32.545Z,66.30
2018-08-13T11:04:32.510Z,66.00
2018-08-13T11:05:32.528Z,66.00
2018-08-13T11:06:32.483Z,65.60
2018-08-13T11:07:32.485Z,65.90
2018-08-13T11:08:32.475Z,66.09
2018-08-13T11:09:32.450Z,65.83
2018-08-13T11:10:32.453Z,66.60
2018-08-13T11:11:32.478Z,66.80
2018-08-13T11:12:32.425Z,67.60
2018-08-13T11:13:32.453Z,66.60
2018-08-13T11:14:32.444Z,66.09
2018-08-13T11:15:32.402Z,66.30
2018-08-13T11:16:32.367Z,66.33
2018-08-13T11:17:32.356Z,66.23
2018-08-13T11:18:32.346Z,66.03
2018-08-13T11:19:32.368Z,66.13
2018-08-13T11:20:32.329Z,66.13
2018-08-13T11:21:32.346Z,65.53
2018-08-13T11:22:32.308Z,65.63
2018-08-13T11:23:32.344Z,66.03
2018-08-13T11:24:32.280Z,66.33
2018-08-13T11:25:32.271Z,65.93
2018-08-13T11:26:32.262Z,65.56
2018-08-13T11:27:32.252Z,66.26
2018-08-13T11:28:32.324Z,66.16
2018-08-13T11:29:32.230Z,66.96
2018-08-13T11:30:32.223Z,67.26
2018-08-13T11:31:32.213Z,66.86
2018-08-13T11:32:32.195Z,67.46
2018-08-13T11:33:32.212Z,67.26
2018-08-13T11:34:32.179Z,67.56
2018-08-13T11:35:32.167Z,67.33
2018-08-13T11:36:32.150Z,67.43
2018-08-13T11:37:32.189Z,66.63
2018-08-13T11:38:32.135Z,66.30
2018-08-13T11:39:32.146Z,66.50
2018-08-13T11:40:32.135Z,66.50
2018-08-13T11:41:32.094Z,65.77
2018-08-13T11:42:32.113Z,65.07
2018-08-13T11:43:32.072Z,65.26
2018-08-13T11:44:32.068Z,64.87
2018-08-13T11:45:32.069Z,65.47
2018-08-13T11:46:32.064Z,65.17
2018-08-13T11:47:32.063Z,64.67
2018-08-13T11:48:32.016Z,64.97
2018-08-13T11:49:32.011Z,64.67
2018-08-13T11:50:31.992Z,64.57
2018-08-13T11:51:31.985Z,64.47
2018-08-13T11:52:32.059Z,64.97
2018-08-13T11:53:31.972Z,64.97
2018-08-13T11:54:31.996Z,64.87
2018-08-13T11:55:31.950Z,65.30
2018-08-13T11:56:31.996Z,65.70
2018-08-13T11:57:31.918Z,65.47
2018-08-13T11:58:31.905Z,65.97
2018-08-13T11:59:31.931Z,65.90
2018-08-13T12:00:31.920Z,66.30
2018-08-13T12:01:31.881Z,65.80
2018-08-13T12:02:31.871Z,66.39
2018-08-13T12:03:31.857Z,66.80
2018-08-13T12:04:31.840Z,66.89
2018-08-13T12:05:31.863Z,66.93
2018-08-13T12:06:31.823Z,67.60
2018-08-13T12:07:31.810Z,67.63
2018-08-13T12:08:31.864Z,67.83
2018-08-13T12:09:31.811Z,68.33
2018-08-13T12:10:31.814Z,69.13
2018-08-13T12:11:31.772Z,68.23
2018-08-13T12:12:31.757Z,68.03
2018-08-13T12:13:31.747Z,67.86
2018-08-13T12:14:31.731Z,68.56
2018-08-13T12:15:31.762Z,68.56
2018-08-13T12:16:31.722Z,67.69
2018-08-13T12:17:31.696Z,69.29
2018-08-13T12:18:31.691Z,69.09
2018-08-13T12:19:31.732Z,69.39
2018-08-13T12:20:31.722Z,69.53
2018-08-13T12:21:31.680Z,71.23
2018-08-13T12:22:32.334Z,70.66
2018-08-13T12:23:31.629Z,70.76
2018-08-13T12:24:31.624Z,71.26
2018-08-13T12:25:31.647Z,72.66
2018-08-13T12:26:31.694Z,73.16
2018-08-13T12:27:31.655Z,73.66
2018-08-13T12:28:31.584Z,73.39
2018-08-13T12:29:31.575Z,73.86
2018-08-13T12:30:31.553Z,74.16
2018-08-13T12:31:31.541Z,74.80
2018-08-13T12:32:31.696Z,76.30
2018-08-13T12:33:31.523Z,76.17
2018-08-13T12:34:31.550Z,76.90
2018-08-13T12:35:31.515Z,77.20
2018-08-13T12:36:31.531Z,77.20
2018-08-13T12:37:31.475Z,77.20
2018-08-13T12:38:31.471Z,77.20
2018-08-13T12:39:32.328Z,77.34
2018-08-13T12:40:31.444Z,77.54
2018-08-13T12:41:31.468Z,77.34
2018-08-13T12:42:31.416Z,77.94
2018-08-13T12:43:31.406Z,77.44
2018-08-13T12:44:31.406Z,78.64
2018-08-13T12:45:31.390Z,78.74
2018-08-13T12:46:31.400Z,78.50
2018-08-13T12:47:31.376Z,78.50
2018-08-13T12:48:31.381Z,78.70
2018-08-13T12:49:31.366Z,78.17
2018-08-13T12:50:31.334Z,78.36
2018-08-13T12:51:32.335Z,78.06
2018-08-13T12:52:31.315Z,77.33